createdAt,value
2023-05-19T00:01:34.798Z,14.04
2023-05-19T00:04:01.178Z,13.98
2023-05-19T00:06:27.619Z,14.03
2023-05-19T00:08:54.003Z,14.09
2023-05-19T00:11:20.405Z,14.04
2023-05-19T00:13:46.824Z,14.14
2023-05-19T00:16:13.256Z,14.11
2023-05-19T00:18:39.668Z,14.08
2023-05-19T00:21:06.255Z,14.09
2023-05-19T00:23:32.638Z,14.09
2023-05-19T00:25:59.070Z,14.11
2023-05-19T00:28:25.462Z,14.19
2023-05-19T00:30:51.904Z,14.23
2023-05-19T00:33:18.349Z,14.13
2023-05-19T00:35:44.736Z,14.06
2023-05-19T00:38:11.173Z,13.93
2023-05-19T00:40:37.558Z,13.91
2023-05-19T00:43:03.942Z,13.88
2023-05-19T00:45:30.380Z,13.92
2023-05-19T00:47:56.810Z,13.90
2023-05-19T00:50:23.300Z,13.97
2023-05-19T00:52:49.725Z,14.01
2023-05-19T00:55:16.107Z,14.06
2023-05-19T00:57:42.567Z,14.06
2023-05-19T01:00:08.989Z,14.17
2023-05-19T01:02:35.581Z,14.16
2023-05-19T01:05:02.007Z,14.17
2023-05-19T01:07:28.438Z,14.11
2023-05-19T01:09:54.868Z,14.07
2023-05-19T01:12:21.294Z,13.97
2023-05-19T01:14:47.713Z,14.05
2023-05-19T01:17:14.137Z,13.99
2023-05-19T01:19:40.585Z,14.02
2023-05-19T01:22:07.047Z,14.07
2023-05-19T01:24:33.481Z,14.11
2023-05-19T01:26:59.859Z,14.18
2023-05-19T01:29:26.286Z,14.21
2023-05-19T01:31:52.734Z,14.28
2023-05-19T01:34:19.175Z,14.28
2023-05-19T01:36:45.575Z,14.29
2023-05-19T01:39:11.998Z,14.31
2023-05-19T01:41:38.426Z,14.32
2023-05-19T01:44:04.821Z,14.36
2023-05-19T01:46:31.291Z,14.43
2023-05-19T01:48:57.754Z,14.47
2023-05-19T01:51:24.213Z,14.49
2023-05-19T01:53:50.651Z,14.39
2023-05-19T01:56:17.036Z,14.36
2023-05-19T01:58:43.410Z,14.32
2023-05-19T02:01:09.849Z,14.35
2023-05-19T02:03:36.261Z,14.31
2023-05-19T02:06:02.706Z,14.30
2023-05-19T02:08:29.084Z,14.26
2023-05-19T02:10:55.511Z,14.26
2023-05-19T02:13:21.942Z,14.34
2023-05-19T02:15:48.335Z,14.31
2023-05-19T02:18:14.710Z,14.27
2023-05-19T02:20:41.129Z,14.24
2023-05-19T02:23:07.571Z,14.23
2023-05-19T02:25:33.943Z,14.21
2023-05-19T02:28:00.317Z,14.14
2023-05-19T02:30:26.756Z,14.13
2023-05-19T02:32:53.254Z,14.15
2023-05-19T02:35:19.723Z,14.01
2023-05-19T02:37:46.107Z,13.98
2023-05-19T02:40:12.519Z,13.94
2023-05-19T02:42:38.928Z,13.94
2023-05-19T02:45:05.325Z,13.94
2023-05-19T02:47:31.833Z,13.90
2023-05-19T02:49:58.260Z,13.86
2023-05-19T02:52:24.689Z,13.81
2023-05-19T02:54:51.086Z,13.80
2023-05-19T02:57:17.456Z,13.83
2023-05-19T02:59:43.905Z,13.79
2023-05-19T03:02:10.432Z,13.64
2023-05-19T03:04:36.863Z,13.58
2023-05-19T03:07:03.304Z,13.50
2023-05-19T03:09:29.733Z,13.43
2023-05-19T03:11:56.180Z,13.51
2023-05-19T03:14:22.562Z,13.39
2023-05-19T03:16:49.069Z,13.45
2023-05-19T03:19:15.668Z,13.42
2023-05-19T03:21:42.126Z,13.43
2023-05-19T03:24:08.510Z,13.45
2023-05-19T03:26:34.947Z,13.54
2023-05-19T03:29:01.330Z,13.59
2023-05-19T03:31:27.746Z,13.68
2023-05-19T03:33:54.193Z,13.71
2023-05-19T03:36:20.572Z,13.68
2023-05-19T03:38:46.955Z,13.62
2023-05-19T03:41:13.379Z,13.67
2023-05-19T03:43:39.814Z,13.75
2023-05-19T03:46:06.240Z,13.58
2023-05-19T03:48:32.710Z,13.55
2023-05-19T03:50:59.091Z,13.55
2023-05-19T03:53:25.474Z,13.63
2023-05-19T03:55:51.898Z,13.67
2023-05-19T03:58:18.288Z,13.66
2023-05-19T04:00:44.710Z,13.61
2023-05-19T04:03:11.252Z,13.46
2023-05-19T04:05:37.731Z,13.48
2023-05-19T04:08:04.120Z,13.54
2023-05-19T04:10:30.637Z,13.60
2023-05-19T04:12:57.232Z,13.64
2023-05-19T04:15:23.611Z,13.68
2023-05-19T04:17:50.005Z,13.68
2023-05-19T04:20:16.451Z,13.65
2023-05-19T04:22:42.852Z,13.64
2023-05-19T04:25:09.279Z,13.65
2023-05-19T04:27:35.670Z,13.59
2023-05-19T04:30:02.050Z,13.39
2023-05-19T04:32:28.449Z,13.40
2023-05-19T04:34:54.905Z,13.37
2023-05-19T04:37:21.314Z,13.31
2023-05-19T04:39:47.737Z,13.38
2023-05-19T04:42:14.183Z,13.34
2023-05-19T04:44:40.563Z,13.41
2023-05-19T04:47:07.009Z,13.46
2023-05-19T04:49:33.502Z,13.40
2023-05-19T04:51:59.946Z,13.29
2023-05-19T04:54:26.317Z,13.30
2023-05-19T04:56:52.736Z,13.41
2023-05-19T04:59:19.111Z,13.43
2023-05-19T05:01:45.545Z,13.39
2023-05-19T05:04:12.013Z,13.41
2023-05-19T05:06:38.500Z,13.32
2023-05-19T05:09:04.984Z,13.30
2023-05-19T05:11:31.394Z,13.33
2023-05-19T05:13:57.768Z,13.44
2023-05-19T05:16:24.242Z,13.52
2023-05-19T05:18:50.661Z,13.49
2023-05-19T05:21:17.097Z,13.60
2023-05-19T05:23:43.508Z,13.62
2023-05-19T05:26:09.930Z,13.70
2023-05-19T05:28:36.348Z,13.75
2023-05-19T05:31:02.772Z,13.86
2023-05-19T05:33:29.178Z,13.86
2023-05-19T05:35:55.644Z,13.93
2023-05-19T05:38:22.062Z,13.94
2023-05-19T05:40:48.490Z,13.99
2023-05-19T05:43:14.927Z,14.04
2023-05-19T05:45:41.362Z,14.08
2023-05-19T05:48:07.867Z,14.07
2023-05-19T05:50:34.298Z,14.02
2023-05-19T05:53:00.708Z,13.91
2023-05-19T05:55:27.102Z,13.92
2023-05-19T05:57:53.477Z,13.91
2023-05-19T06:00:19.902Z,13.98
2023-05-19T06:02:46.490Z,13.95
2023-05-19T06:05:13.024Z,13.87
2023-05-19T06:07:39.499Z,13.95
2023-05-19T06:10:05.939Z,13.96
2023-05-19T06:12:32.396Z,14.08
2023-05-19T06:14:58.781Z,14.08
2023-05-19T06:17:25.237Z,14.11
2023-05-19T06:19:51.718Z,14.13
2023-05-19T06:22:18.175Z,14.17
2023-05-19T06:24:44.559Z,14.17
2023-05-19T06:27:10.939Z,14.15
2023-05-19T06:29:37.365Z,14.12
2023-05-19T06:32:03.762Z,14.11
2023-05-19T06:34:30.188Z,13.95
2023-05-19T06:36:56.571Z,14.09
2023-05-19T06:39:23.002Z,14.08
2023-05-19T06:41:49.427Z,14.25
2023-05-19T06:44:15.802Z,14.32
2023-05-19T06:46:42.224Z,14.32
2023-05-19T06:49:08.620Z,14.38
2023-05-19T06:51:35.010Z,14.30
2023-05-19T06:54:01.464Z,14.37
2023-05-19T06:56:27.849Z,14.41
2023-05-19T06:58:54.283Z,14.44
2023-05-19T07:01:20.706Z,14.36
2023-05-19T07:03:47.138Z,14.28
2023-05-19T07:06:13.786Z,14.48
2023-05-19T07:08:40.231Z,14.61
2023-05-19T07:11:07.059Z,14.68
2023-05-19T07:13:33.428Z,14.79
2023-05-19T07:15:59.917Z,14.86
2023-05-19T07:18:26.329Z,14.73
2023-05-19T07:20:52.759Z,14.74
2023-05-19T07:23:19.187Z,14.78
2023-05-19T07:25:45.577Z,14.77
2023-05-19T07:28:12.013Z,14.84
2023-05-19T07:30:38.406Z,14.68
2023-05-19T07:33:04.851Z,14.65
2023-05-19T07:35:31.304Z,14.86
2023-05-19T07:37:57.674Z,15.05
2023-05-19T07:40:24.056Z,14.98
2023-05-19T07:42:50.450Z,15.17
2023-05-19T07:45:16.898Z,15.29
2023-05-19T07:47:43.436Z,15.24
2023-05-19T07:50:09.880Z,15.37
2023-05-19T07:52:36.343Z,15.37
2023-05-19T07:55:02.761Z,15.40
2023-05-19T07:57:29.186Z,15.40
2023-05-19T07:59:55.583Z,15.46
2023-05-19T08:02:22.126Z,15.54
2023-05-19T08:04:48.726Z,15.64
2023-05-19T08:07:15.208Z,15.75
2023-05-19T08:09:41.571Z,15.70
2023-05-19T08:12:07.994Z,15.78
2023-05-19T08:14:34.389Z,16.01
2023-05-19T08:17:00.828Z,16.17
2023-05-19T08:19:27.396Z,16.20
2023-05-19T08:21:53.948Z,16.26
2023-05-19T08:24:20.365Z,16.33
2023-05-19T08:26:46.749Z,16.17
2023-05-19T08:29:13.202Z,16.34
2023-05-19T08:31:39.627Z,16.63
2023-05-19T08:34:06.201Z,16.69
2023-05-19T08:36:32.596Z,16.61
2023-05-19T08:38:59.083Z,16.55
2023-05-19T08:41:25.479Z,16.60
2023-05-19T08:43:51.851Z,16.84
2023-05-19T08:46:18.332Z,17.01
2023-05-19T08:48:44.811Z,16.94
2023-05-19T08:51:11.207Z,16.91
2023-05-19T08:53:37.577Z,16.74
2023-05-19T08:56:03.960Z,16.79
2023-05-19T08:58:30.353Z,16.67
2023-05-19T09:00:56.783Z,16.92
2023-05-19T09:03:24.056Z,17.09
2023-05-19T09:05:50.768Z,17.12
2023-05-19T09:08:17.305Z,17.14
2023-05-19T09:10:43.697Z,17.34
2023-05-19T09:13:10.129Z,17.46
2023-05-19T09:15:36.693Z,17.59
2023-05-19T09:18:03.328Z,17.69
2023-05-19T09:20:29.860Z,17.80
2023-05-19T09:22:56.288Z,17.47
2023-05-19T09:25:22.751Z,17.50
2023-05-19T09:27:49.138Z,17.19
2023-05-19T09:30:15.531Z,16.98
2023-05-19T09:32:41.997Z,16.87
2023-05-19T09:35:08.403Z,17.10
2023-05-19T09:37:34.843Z,17.42
2023-05-19T09:40:01.237Z,17.59
2023-05-19T09:42:27.649Z,17.28
2023-05-19T09:44:54.028Z,17.20
2023-05-19T09:47:20.449Z,17.17
2023-05-19T09:49:46.893Z,17.23
2023-05-19T09:52:13.280Z,16.95
2023-05-19T09:54:39.735Z,17.04
2023-05-19T09:57:08.127Z,17.23
2023-05-19T09:59:35.068Z,17.20
2023-05-19T10:02:01.581Z,17.34
2023-05-19T10:04:28.071Z,17.42
2023-05-19T10:06:54.547Z,17.49
2023-05-19T10:09:20.969Z,17.19
2023-05-19T10:11:47.372Z,17.13
2023-05-19T10:14:13.802Z,17.11
2023-05-19T10:16:40.216Z,17.37
2023-05-19T10:19:06.691Z,17.47
2023-05-19T10:21:33.134Z,17.32
2023-05-19T10:23:59.580Z,17.19
2023-05-19T10:26:26.012Z,16.92
2023-05-19T10:28:52.419Z,17.04
2023-05-19T10:31:18.855Z,17.20
2023-05-19T10:33:45.424Z,17.56
2023-05-19T10:36:11.810Z,17.31
2023-05-19T10:38:38.209Z,17.21
2023-05-19T10:41:04.634Z,17.70
2023-05-19T10:43:31.075Z,17.95
2023-05-19T10:45:57.451Z,18.13
2023-05-19T10:48:23.882Z,18.21
2023-05-19T10:50:50.269Z,18.06
2023-05-19T10:53:16.643Z,18.15
2023-05-19T10:55:43.079Z,18.23
2023-05-19T10:58:09.506Z,18.41
2023-05-19T11:00:35.908Z,18.62
2023-05-19T11:03:02.387Z,18.76
2023-05-19T11:05:28.828Z,18.81
2023-05-19T11:07:55.287Z,19.09
2023-05-19T11:10:21.730Z,18.87
2023-05-19T11:12:48.116Z,19.13
2023-05-19T11:15:14.556Z,19.43
2023-05-19T11:17:40.994Z,19.62
2023-05-19T11:20:07.441Z,19.76
2023-05-19T11:22:33.889Z,19.93
2023-05-19T11:25:00.280Z,19.97
2023-05-19T11:27:26.736Z,19.89
2023-05-19T11:29:53.149Z,19.76
2023-05-19T11:32:19.621Z,19.65
2023-05-19T11:34:46.189Z,19.41
2023-05-19T11:37:12.568Z,19.72
2023-05-19T11:39:38.984Z,19.72
2023-05-19T11:42:05.437Z,19.91
2023-05-19T11:44:31.832Z,19.89
2023-05-19T11:46:58.269Z,19.84
2023-05-19T11:49:24.695Z,19.77
2023-05-19T11:51:51.121Z,20.03
2023-05-19T11:54:17.501Z,19.88
2023-05-19T11:56:43.927Z,19.85
2023-05-19T11:59:10.330Z,20.06
2023-05-19T12:01:36.694Z,20.23
2023-05-19T12:04:03.205Z,20.24
2023-05-19T12:06:29.703Z,20.39
2023-05-19T12:08:56.162Z,20.57
2023-05-19T12:11:22.591Z,20.33
2023-05-19T12:13:48.978Z,20.44
2023-05-19T12:16:15.424Z,20.38
2023-05-19T12:18:41.901Z,20.42
2023-05-19T12:21:08.434Z,20.37
2023-05-19T12:23:34.819Z,20.52
2023-05-19T12:26:01.282Z,20.70
2023-05-19T12:28:27.678Z,20.69
2023-05-19T12:30:54.047Z,20.77
2023-05-19T12:33:20.492Z,20.19
2023-05-19T12:35:46.904Z,20.46
2023-05-19T12:38:13.328Z,20.63
2023-05-19T12:40:39.737Z,20.59
2023-05-19T12:43:06.166Z,20.75
2023-05-19T12:45:32.574Z,20.67
2023-05-19T12:47:59.054Z,20.85
2023-05-19T12:50:25.498Z,20.77
2023-05-19T12:52:51.901Z,21.01
2023-05-19T12:55:18.949Z,20.90
2023-05-19T12:57:45.347Z,21.01
2023-05-19T13:00:11.755Z,20.97
2023-05-19T13:02:38.235Z,20.93
2023-05-19T13:05:04.738Z,21.01
2023-05-19T13:07:31.140Z,21.26
2023-05-19T13:09:57.564Z,21.45
2023-05-19T13:12:24.014Z,21.71
2023-05-19T13:14:50.387Z,21.56
2023-05-19T13:17:16.800Z,21.30
2023-05-19T13:19:43.317Z,21.13
2023-05-19T13:22:09.777Z,21.28
2023-05-19T13:24:36.161Z,21.47
2023-05-19T13:27:02.559Z,21.41
2023-05-19T13:29:29.017Z,21.31
2023-05-19T13:31:55.444Z,21.45
2023-05-19T13:34:21.880Z,21.51
2023-05-19T13:36:48.388Z,21.67
2023-05-19T13:39:14.813Z,21.79
2023-05-19T13:41:41.238Z,22.04
2023-05-19T13:44:07.661Z,22.39
2023-05-19T13:46:44.809Z,22.55
2023-05-19T13:49:12.347Z,22.62
2023-05-19T13:51:38.746Z,22.81
2023-05-19T13:54:05.216Z,22.88
2023-05-19T13:56:31.749Z,22.96
2023-05-19T13:58:58.196Z,22.78
2023-05-19T14:01:24.694Z,22.76
2023-05-19T14:03:51.268Z,22.52
2023-05-19T14:06:17.865Z,22.38
2023-05-19T14:08:44.300Z,22.49
2023-05-19T14:11:10.706Z,22.42
2023-05-19T14:13:40.384Z,22.37
2023-05-19T14:16:09.124Z,22.12
2023-05-19T14:18:35.623Z,21.99
2023-05-19T14:21:02.018Z,21.73
2023-05-19T14:23:28.413Z,22.05
2023-05-19T14:25:54.865Z,22.35
2023-05-19T14:28:21.299Z,22.13
2023-05-19T14:30:48.322Z,22.06
2023-05-19T14:33:14.845Z,22.06
2023-05-19T14:35:41.279Z,22.05
2023-05-19T14:38:07.721Z,21.99
2023-05-19T14:40:34.336Z,21.92
2023-05-19T14:43:00.894Z,21.68
2023-05-19T14:45:27.289Z,21.88
2023-05-19T14:47:53.779Z,21.48
2023-05-19T14:50:20.276Z,21.35
2023-05-19T14:52:46.655Z,21.42
2023-05-19T14:55:13.089Z,21.40
2023-05-19T14:57:39.489Z,21.17
2023-05-19T15:00:05.930Z,20.99
2023-05-19T15:02:32.335Z,21.13
2023-05-19T15:04:58.796Z,20.91
2023-05-19T15:07:25.175Z,20.93
2023-05-19T15:09:51.547Z,20.93
2023-05-19T15:12:17.923Z,20.96
2023-05-19T15:14:44.347Z,20.77
2023-05-19T15:17:10.883Z,20.59
2023-05-19T15:19:37.393Z,20.59
2023-05-19T15:22:03.843Z,20.63
2023-05-19T15:24:30.245Z,20.38
2023-05-19T15:26:56.669Z,20.56
2023-05-19T15:29:23.105Z,20.41
2023-05-19T15:31:49.637Z,20.59
2023-05-19T15:34:16.141Z,20.75
2023-05-19T15:36:42.540Z,20.72
2023-05-19T15:39:08.905Z,20.69
2023-05-19T15:41:35.338Z,20.63
2023-05-19T15:44:01.797Z,20.62
2023-05-19T15:46:28.266Z,20.53
2023-05-19T15:48:54.712Z,20.49
2023-05-19T15:51:21.095Z,20.32
2023-05-19T15:53:47.492Z,19.61
2023-05-19T15:56:14.127Z,19.57
2023-05-19T15:58:40.613Z,19.51
2023-05-19T16:01:07.011Z,19.66
2023-05-19T16:03:33.467Z,19.75
2023-05-19T16:05:59.993Z,19.87
2023-05-19T16:08:26.453Z,19.70
2023-05-19T16:10:52.875Z,19.88
2023-05-19T16:13:19.301Z,19.91
2023-05-19T16:15:45.738Z,19.90
2023-05-19T16:18:12.174Z,19.95
2023-05-19T16:20:38.678Z,19.68
2023-05-19T16:23:05.107Z,19.81
2023-05-19T16:25:31.498Z,19.90
2023-05-19T16:27:57.928Z,20.02
2023-05-19T16:30:24.306Z,20.06
2023-05-19T16:32:50.752Z,20.04
2023-05-19T16:35:17.216Z,20.10
2023-05-19T16:37:43.605Z,20.17
2023-05-19T16:40:10.029Z,19.73
2023-05-19T16:42:36.458Z,19.56
2023-05-19T16:45:02.853Z,19.37
2023-05-19T16:47:29.245Z,19.55
2023-05-19T16:49:55.708Z,19.47
2023-05-19T16:52:22.188Z,19.16
2023-05-19T16:54:48.584Z,19.19
2023-05-19T16:57:14.985Z,18.81
2023-05-19T16:59:41.401Z,18.77
2023-05-19T17:02:07.871Z,18.84
2023-05-19T17:04:34.329Z,18.78
2023-05-19T17:07:00.758Z,18.82
2023-05-19T17:09:27.141Z,18.96
2023-05-19T17:11:53.552Z,18.67
2023-05-19T17:14:19.943Z,18.86
2023-05-19T17:16:46.370Z,18.70
2023-05-19T17:19:12.900Z,18.81
2023-05-19T17:21:39.320Z,18.77
2023-05-19T17:24:05.748Z,18.87
2023-05-19T17:26:32.171Z,18.77
2023-05-19T17:28:58.575Z,18.69
2023-05-19T17:31:25.014Z,18.74
2023-05-19T17:33:51.449Z,18.47
2023-05-19T17:36:17.840Z,18.45
2023-05-19T17:38:44.282Z,18.41
2023-05-19T17:41:10.752Z,18.45
2023-05-19T17:43:37.225Z,18.22
2023-05-19T17:46:03.629Z,18.37
2023-05-19T17:48:30.061Z,18.26
2023-05-19T17:50:56.473Z,18.16
2023-05-19T17:53:22.873Z,18.25
2023-05-19T17:55:49.244Z,18.19
2023-05-19T17:58:15.695Z,18.30
2023-05-19T18:00:42.107Z,18.17
2023-05-19T18:03:08.599Z,18.10
2023-05-19T18:05:35.051Z,17.98
2023-05-19T18:08:01.475Z,18.01
2023-05-19T18:10:27.904Z,18.15
2023-05-19T18:12:55.425Z,17.97
2023-05-19T18:15:21.841Z,18.02
2023-05-19T18:17:48.294Z,17.97
2023-05-19T18:20:14.728Z,17.93
2023-05-19T18:22:41.111Z,17.92
2023-05-19T18:25:07.478Z,17.81
2023-05-19T18:27:33.849Z,17.91
2023-05-19T18:30:00.273Z,18.06
2023-05-19T18:32:26.720Z,18.02
2023-05-19T18:34:53.155Z,18.12
2023-05-19T18:37:19.561Z,18.03
2023-05-19T18:39:45.967Z,17.89
2023-05-19T18:42:12.400Z,17.98
2023-05-19T18:44:38.796Z,18.03
2023-05-19T18:47:05.208Z,17.90
2023-05-19T18:49:31.597Z,17.88
2023-05-19T18:51:58.010Z,17.70
2023-05-19T18:54:24.403Z,17.59
2023-05-19T18:56:50.827Z,17.51
2023-05-19T18:59:17.267Z,17.52
2023-05-19T19:01:43.812Z,17.32
2023-05-19T19:04:10.359Z,17.36
2023-05-19T19:06:36.832Z,17.11
2023-05-19T19:09:03.279Z,17.07
2023-05-19T19:11:29.672Z,17.07
2023-05-19T19:13:56.102Z,16.85
2023-05-19T19:16:22.549Z,16.84
2023-05-19T19:18:49.076Z,16.85
2023-05-19T19:21:15.554Z,16.95
2023-05-19T19:23:41.922Z,16.99
2023-05-19T19:26:08.355Z,17.03
2023-05-19T19:28:34.749Z,17.07
2023-05-19T19:31:01.154Z,17.07
2023-05-19T19:33:27.531Z,17.07
2023-05-19T19:35:53.977Z,16.91
2023-05-19T19:38:20.369Z,17.03
2023-05-19T19:40:46.874Z,17.06
2023-05-19T19:43:13.286Z,17.09
2023-05-19T19:45:39.714Z,17.02
2023-05-19T19:48:06.125Z,16.93
2023-05-19T19:50:32.761Z,16.91
2023-05-19T19:52:59.341Z,16.94
2023-05-19T19:55:25.728Z,16.81
2023-05-19T19:57:52.145Z,16.72
2023-05-19T20:00:18.553Z,16.53
2023-05-19T20:03:02.971Z,16.65
2023-05-19T20:05:30.555Z,16.75
2023-05-19T20:07:57.112Z,16.49
2023-05-19T20:10:23.714Z,16.60
2023-05-19T20:12:50.145Z,16.54
2023-05-19T20:15:16.573Z,16.76
2023-05-19T20:17:43.054Z,16.78
2023-05-19T20:20:09.457Z,16.81
2023-05-19T20:22:35.823Z,16.79
2023-05-19T20:25:02.380Z,16.76
2023-05-19T20:27:28.761Z,16.43
2023-05-19T20:29:55.198Z,16.38
2023-05-19T20:32:21.695Z,16.26
2023-05-19T20:34:48.474Z,16.40
2023-05-19T20:37:14.893Z,16.40
2023-05-19T20:39:41.316Z,16.31
2023-05-19T20:42:07.761Z,16.05
2023-05-19T20:44:34.203Z,16.07
2023-05-19T20:47:00.591Z,16.04
2023-05-19T20:49:27.009Z,16.11
2023-05-19T20:51:53.447Z,16.19
2023-05-19T20:54:19.895Z,16.29
2023-05-19T20:56:46.287Z,16.18
2023-05-19T20:59:12.735Z,16.25
2023-05-19T21:01:39.216Z,16.34
2023-05-19T21:04:05.704Z,16.30
2023-05-19T21:06:32.164Z,16.35
2023-05-19T21:08:58.624Z,16.37
2023-05-19T21:11:25.000Z,16.31
2023-05-19T21:13:51.398Z,16.30
2023-05-19T21:16:17.846Z,16.13
2023-05-19T21:18:44.306Z,16.16
2023-05-19T21:21:10.768Z,16.12
2023-05-19T21:23:37.151Z,16.19
2023-05-19T21:26:03.685Z,16.19
2023-05-19T21:28:30.078Z,16.10
2023-05-19T21:30:56.541Z,16.00
2023-05-19T21:33:22.997Z,16.09
2023-05-19T21:35:49.421Z,16.15
2023-05-19T21:38:23.828Z,16.11
2023-05-19T21:40:50.654Z,16.02
2023-05-19T21:43:17.094Z,16.00
2023-05-19T21:45:43.491Z,16.01
2023-05-19T21:48:10.011Z,16.01
2023-05-19T21:50:36.533Z,16.00
2023-05-19T21:53:02.958Z,16.10
2023-05-19T21:55:29.434Z,16.16
2023-05-19T21:57:55.825Z,16.04
2023-05-19T22:00:22.207Z,16.08
2023-05-19T22:02:48.663Z,15.85
2023-05-19T22:05:15.124Z,15.92
2023-05-19T22:07:41.511Z,16.11
2023-05-19T22:10:07.909Z,16.01
2023-05-19T22:12:34.277Z,16.01
2023-05-19T22:15:00.720Z,16.06
2023-05-19T22:17:27.194Z,15.97
2023-05-19T22:19:53.601Z,16.08
2023-05-19T22:22:20.003Z,16.01
2023-05-19T22:24:46.493Z,16.00
2023-05-19T22:27:12.931Z,16.11
2023-05-19T22:29:39.379Z,16.16
2023-05-19T22:32:05.865Z,16.17
2023-05-19T22:34:32.298Z,16.16
2023-05-19T22:36:58.766Z,16.04
2023-05-19T22:39:25.201Z,16.09
2023-05-19T22:41:51.581Z,16.07
2023-05-19T22:44:18.029Z,16.07
2023-05-19T22:46:44.463Z,15.98
2023-05-19T22:49:10.892Z,15.99
2023-05-19T22:51:37.294Z,16.00
2023-05-19T22:54:03.694Z,15.94
2023-05-19T22:56:30.132Z,15.98
2023-05-19T22:58:56.532Z,15.90
2023-05-19T23:01:23.028Z,15.60
2023-05-19T23:03:49.516Z,15.74
2023-05-19T23:06:15.918Z,15.67
2023-05-19T23:08:42.667Z,15.70
2023-05-19T23:11:09.539Z,15.76
2023-05-19T23:13:35.918Z,15.74
2023-05-19T23:16:02.299Z,15.64
2023-05-19T23:18:28.722Z,15.52
2023-05-19T23:20:55.117Z,15.68
2023-05-19T23:23:21.548Z,15.46
2023-05-19T23:25:47.953Z,15.45
2023-05-19T23:28:14.383Z,15.52
2023-05-19T23:30:40.764Z,15.59
2023-05-19T23:33:07.221Z,15.42
2023-05-19T23:35:33.974Z,15.47
2023-05-19T23:38:00.531Z,15.42
2023-05-19T23:40:26.984Z,15.42
2023-05-19T23:42:53.430Z,15.55
2023-05-19T23:45:19.823Z,15.54
2023-05-19T23:47:46.282Z,15.37
2023-05-19T23:50:12.710Z,15.35
2023-05-19T23:52:39.138Z,15.19
2023-05-19T23:55:05.561Z,15.19
2023-05-19T23:57:31.952Z,15.13
2023-05-19T23:59:58.396Z,15.16
